Time;durP1;ratioP1;P1;durP2;ratioP2;P2;SDS_P1;SDS_P2;PMS_P1;PMS_P2;Temp;Humidity;BMP_temperature;BMP_pressure;BME280_temperature;BME280_humidity;BME280_pressure;Samples;Min_cycle;Max_cycle;Signal;HPM_P1;HPM_P2
2023/04/03 07:56:09;;;;;;;5.23;2.27;;;11.40;99.90;;;;;;4534907;23;20240;-74
2023/04/03 07:58:36;;;;;;;2.40;2.20;;;11.20;99.90;;;;;;4947041;28;20252;-74
2023/04/03 08:01:04;;;;;;;2.87;2.10;;;10.80;99.90;;;;;;4946116;29;20204;-73
2023/04/03 08:03:30;;;;;;;3.20;1.87;;;9.80;99.90;;;;;;4957139;28;20232;-73
2023/04/03 08:06:04;;;;;;;3.03;2.17;;;9.90;99.90;;;;;;4957397;29;20208;-74
2023/04/03 08:08:31;;;;;;;4.20;1.77;;;10.30;99.90;;;;;;4957478;29;20263;-75
2023/04/03 08:11:00;;;;;;;4.30;1.90;;;10.70;99.90;;;;;;4946146;28;20670;-73
2023/04/03 08:13:28;;;;;;;2.13;1.80;;;11.10;99.90;;;;;;4956964;28;20223;-74
2023/04/03 08:15:56;;;;;;;3.63;1.60;;;10.80;99.90;;;;;;4957151;28;20576;-74
2023/04/03 08:18:25;;;;;;;3.70;1.67;;;10.90;99.90;;;;;;4957343;29;20212;-74
2023/04/03 08:20:52;;;;;;;3.47;1.77;;;10.20;99.90;;;;;;4957055;29;20306;-73
2023/04/03 08:23:19;;;;;;;2.17;1.70;;;10.30;99.90;;;;;;4956980;28;20236;-74
2023/04/03 08:25:46;;;;;;;6.60;2.30;;;10.40;99.90;;;;;;4957431;28;20208;-74
2023/04/03 08:28:13;;;;;;;2.30;1.70;;;10.80;99.90;;;;;;4957079;28;20204;-73
2023/04/03 08:30:42;;;;;;;3.93;1.90;;;11.40;99.90;;;;;;4956676;29;20216;-73
2023/04/03 08:33:09;;;;;;;4.53;1.77;;;11.70;99.90;;;;;;4956862;28;20791;-74
2023/04/03 08:35:40;;;;;;;2.77;2.10;;;12.20;99.90;;;;;;4957009;28;20208;-74
2023/04/03 08:38:07;;;;;;;3.63;1.87;;;12.30;99.90;;;;;;4956985;28;20211;-74
2023/04/03 08:40:34;;;;;;;4.43;1.93;;;12.80;99.90;;;;;;4956701;28;20208;-74
2023/04/03 08:43:15;;;;;;;4.67;2.00;;;13.30;99.90;;;;;;4956508;28;20247;-74
2023/04/03 08:45:50;;;;;;;4.73;1.90;;;13.20;99.90;;;;;;4956813;28;20583;-74
2023/04/03 08:48:21;;;;;;;3.10;1.60;;;12.60;99.90;;;;;;4956800;28;20212;-73
2023/04/03 08:50:50;;;;;;;2.60;1.73;;;12.00;99.90;;;;;;4956327;28;20554;-74
2023/04/03 08:53:20;;;;;;;3.50;1.50;;;11.00;99.90;;;;;;4956670;28;20232;-74
2023/04/03 08:55:48;;;;;;;3.43;1.60;;;11.30;99.90;;;;;;4956165;28;20212;-72
2023/04/03 08:58:19;;;;;;;2.90;1.50;;;10.90;99.90;;;;;;4956453;28;20288;-74
2023/04/03 09:00:51;;;;;;;3.17;1.53;;;10.50;99.90;;;;;;4956140;28;20211;-74
2023/04/03 09:03:20;;;;;;;2.97;1.60;;;10.70;99.90;;;;;;4955946;28;20703;-74
2023/04/03 09:05:51;;;;;;;2.97;1.50;;;11.10;99.90;;;;;;4955909;28;20204;-74
2023/04/03 09:08:27;;;;;;;2.30;1.67;;;11.10;99.90;;;;;;4955923;29;20214;-74
2023/04/03 09:11:02;;;;;;;3.07;1.70;;;10.80;99.90;;;;;;4951943;28;20659;-74
2023/04/03 09:13:38;;;;;;;3.03;1.30;;;10.50;99.90;;;;;;4954296;28;20231;-74
2023/04/03 09:16:21;;;;;;;3.00;1.50;;;10.80;99.90;;;;;;4956504;28;20607;-74
2023/04/03 09:18:53;;;;;;;2.10;1.30;;;10.80;99.90;;;;;;4937099;29;20220;-74
2023/04/03 09:21:24;;;;;;;4.30;1.30;;;10.90;99.90;;;;;;4945524;29;20212;-73
2023/04/03 09:23:52;;;;;;;3.20;1.40;;;10.70;99.90;;;;;;4955842;28;20232;-73
2023/04/03 09:26:24;;;;;;;2.50;1.30;;;10.50;99.90;;;;;;4955982;28;20214;-73
2023/04/03 09:28:51;;;;;;;2.83;1.07;;;10.30;99.90;;;;;;4955427;28;20316;-74
2023/04/03 09:31:24;;;;;;;2.23;1.20;;;10.40;99.90;;;;;;4955667;29;20686;-73
2023/04/03 09:33:53;;;;;;;3.90;1.40;;;10.10;99.90;;;;;;4955927;28;20228;-74
2023/04/03 09:36:40;;;;;;;3.37;0.97;;;9.40;99.90;;;;;;4955992;28;20214;-73
2023/04/03 09:39:12;;;;;;;1.60;0.90;;;8.70;99.90;;;;;;4955769;28;20208;-73
2023/04/03 09:41:39;;;;;;;2.00;1.03;;;8.40;99.90;;;;;;4955174;28;20704;-73
2023/04/03 09:44:22;;;;;;;1.30;0.90;;;8.60;99.90;;;;;;4955526;28;20232;-74
2023/04/03 09:46:50;;;;;;;3.07;1.07;;;8.60;99.90;;;;;;4955679;28;20216;-73
2023/04/03 09:49:18;;;;;;;2.03;0.90;;;8.80;99.90;;;;;;4955719;28;20208;-73
2023/04/03 09:51:45;;;;;;;1.63;0.90;;;9.00;99.90;;;;;;4955358;28;20212;-73
2023/04/03 09:54:38;;;;;;;3.80;1.07;;;8.90;99.90;;;;;;4955197;28;20228;-73
2023/04/03 09:57:15;;;;;;;1.23;1.00;;;8.80;99.90;;;;;;4955159;28;20670;-73
2023/04/03 09:59:46;;;;;;;2.93;1.50;;;8.70;99.90;;;;;;4955567;28;20215;-73
2023/04/03 10:02:37;;;;;;;2.03;0.97;;;8.90;99.90;;;;;;4955126;28;20262;-73
2023/04/03 10:05:25;;;;;;;2.30;1.03;;;8.90;99.90;;;;;;4950329;28;20234;-75
2023/04/03 10:07:52;;;;;;;1.60;0.90;;;8.70;99.90;;;;;;4955257;29;20204;-74
2023/04/03 10:10:22;;;;;;;1.53;0.83;;;8.60;99.90;;;;;;4954855;28;20208;-75
2023/04/03 10:13:04;;;;;;;4.40;0.90;;;8.70;99.90;;;;;;4950233;28;20319;-75
2023/04/03 10:15:37;;;;;;;1.30;0.90;;;8.90;99.90;;;;;;4936251;29;20211;-73
2023/04/03 10:18:11;;;;;;;3.07;0.97;;;9.10;99.90;;;;;;4945889;29;20300;-74
2023/04/03 10:20:43;;;;;;;2.57;0.80;;;8.90;99.90;;;;;;4955157;29;20207;-75
2023/04/03 10:23:25;;;;;;;1.43;0.77;;;9.00;99.90;;;;;;4935865;29;20251;-72
2023/04/03 10:26:04;;;;;;;1.77;0.97;;;9.00;99.90;;;;;;4935746;29;20212;-74
2023/04/03 10:28:36;;;;;;;2.97;0.90;;;9.10;99.90;;;;;;4935700;29;20209;-75
2023/04/03 10:31:11;;;;;;;3.60;0.90;;;9.30;99.90;;;;;;4952109;29;20208;-73
2023/04/03 10:33:54;;;;;;;4.07;0.93;;;9.10;99.90;;;;;;4954724;28;20238;-74
2023/04/03 10:36:30;;;;;;;2.77;1.00;;;8.90;99.90;;;;;;4955232;28;20208;-74
2023/04/03 10:39:05;;;;;;;2.40;0.90;;;9.00;99.90;;;;;;4954618;28;20214;-74
2023/04/03 10:41:43;;;;;;;1.37;0.60;;;9.00;99.90;;;;;;4941762;29;20207;-74
2023/04/03 10:44:20;;;;;;;2.90;1.10;;;9.00;99.90;;;;;;4954557;28;20252;-74
2023/04/03 10:46:50;;;;;;;2.83;0.87;;;9.00;99.90;;;;;;4954846;28;20211;-75
2023/04/03 10:49:33;;;;;;;3.73;0.83;;;9.10;99.90;;;;;;4954907;28;20336;-73
2023/04/03 10:52:06;;;;;;;1.17;0.90;;;9.00;99.90;;;;;;4954301;28;20218;-74
2023/04/03 10:54:37;;;;;;;2.30;0.80;;;9.20;99.90;;;;;;4954682;28;20208;-74
2023/04/03 10:57:06;;;;;;;1.63;0.70;;;9.10;99.90;;;;;;4954350;28;20216;-74
2023/04/03 10:59:36;;;;;;;2.50;1.00;;;9.10;99.90;;;;;;4954646;28;20220;-74
2023/04/03 11:02:07;;;;;;;3.67;0.87;;;9.10;99.90;;;;;;4954333;28;20250;-74
2023/04/03 11:04:39;;;;;;;0.73;0.60;;;8.80;99.90;;;;;;4954884;28;20239;-74
2023/04/03 11:07:12;;;;;;;2.00;0.70;;;8.80;99.90;;;;;;4954166;28;20211;-73
2023/04/03 11:09:43;;;;;;;2.47;0.60;;;8.90;99.90;;;;;;4954366;29;20214;-74
2023/04/03 11:12:15;;;;;;;1.47;0.57;;;8.80;99.20;;;;;;4954172;28;20216;-74
2023/04/03 11:14:43;;;;;;;3.13;0.53;;;8.80;99.40;;;;;;4949619;28;20222;-74
2023/04/03 11:17:22;;;;;;;1.23;0.50;;;8.80;99.30;;;;;;4954381;28;20208;-74
2023/04/03 11:19:58;;;;;;;3.67;0.67;;;9.00;99.40;;;;;;4954508;28;20204;-74
2023/04/03 11:22:30;;;;;;;1.60;0.60;;;9.00;99.90;;;;;;4954405;28;20236;-73
2023/04/03 11:25:03;;;;;;;1.57;0.50;;;9.00;99.60;;;;;;4954414;28;20564;-74
2023/04/03 11:27:36;;;;;;;6.20;0.60;;;9.10;99.50;;;;;;4954290;28;20267;-74
2023/04/03 11:30:08;;;;;;;1.30;0.60;;;9.10;99.10;;;;;;4954278;28;20216;-74
2023/04/03 11:32:50;;;;;;;2.53;0.50;;;9.30;99.80;;;;;;4954178;28;20721;-74
2023/04/03 11:35:20;;;;;;;1.87;0.80;;;9.50;99.40;;;;;;4935272;29;20204;-73
2023/04/03 11:37:50;;;;;;;2.60;0.90;;;9.60;99.90;;;;;;4935104;29;20205;-74
2023/04/03 11:40:25;;;;;;;2.20;1.00;;;9.50;99.90;;;;;;4935468;29;20299;-74
2023/04/03 11:42:55;;;;;;;2.47;0.80;;;9.50;99.90;;;;;;4935081;29;20287;-74
2023/04/03 11:45:35;;;;;;;0.87;0.60;;;9.60;99.10;;;;;;4954318;28;20764;-74
2023/04/03 11:48:04;;;;;;;1.73;0.70;;;9.40;98.30;;;;;;4954348;28;20208;-74
2023/04/03 11:50:41;;;;;;;0.73;0.40;;;9.30;99.20;;;;;;4954348;28;20208;-74
2023/04/03 11:53:33;;;;;;;1.50;0.90;;;9.30;98.80;;;;;;4957671;28;20232;-74
2023/04/03 11:56:30;;;;;;;1.20;0.50;;;9.20;98.20;;;;;;4957781;28;20262;-74
2023/04/03 11:59:23;;;;;;;2.93;0.70;;;9.10;99.00;;;;;;4951282;28;20204;-74
2023/04/03 12:01:51;;;;;;;2.73;0.60;;;9.30;99.10;;;;;;4957727;28;20208;-74
2023/04/03 12:04:19;;;;;;;1.70;1.17;;;9.20;97.80;;;;;;4957315;28;20240;-74
2023/04/03 12:07:08;;;;;;;2.07;1.47;;;9.30;98.90;;;;;;4957470;28;20243;-73
2023/04/03 12:09:51;;;;;;;1.20;0.50;;;9.50;99.80;;;;;;4957096;28;20207;-74
2023/04/03 12:12:31;;;;;;;1.20;0.57;;;9.60;96.80;;;;;;4957132;28;20231;-72
2023/04/03 12:15:23;;;;;;;0.77;0.50;;;9.50;95.70;;;;;;4953057;28;20210;-72
2023/04/03 12:17:51;;;;;;;1.93;0.33;;;9.40;96.10;;;;;;4937991;29;20405;-72
2023/04/03 12:20:56;;;;;;;1.07;0.33;;;9.40;95.30;;;;;;4948045;29;20558;-76
2023/04/03 12:23:32;;;;;;;1.30;0.50;;;9.40;96.80;;;;;;4956694;28;20249;-73
2023/04/03 12:26:22;;;;;;;0.80;0.50;;;9.60;96.60;;;;;;4957127;28;20211;-74
2023/04/03 12:28:52;;;;;;;1.80;0.60;;;9.50;94.90;;;;;;4956806;28;20208;-73
2023/04/03 12:31:19;;;;;;;3.13;0.70;;;9.60;94.60;;;;;;4956771;29;20243;-74
2023/04/03 12:34:12;;;;;;;1.20;0.60;;;9.60;95.10;;;;;;4956982;28;20236;-73
2023/04/03 12:36:47;;;;;;;1.43;0.50;;;9.50;94.00;;;;;;4954752;28;20214;-73
2023/04/03 12:39:55;;;;;;;0.97;0.40;;;9.60;94.90;;;;;;4957024;28;20208;-75
2023/04/03 12:42:36;;;;;;;1.17;0.60;;;9.70;94.30;;;;;;4951728;28;20232;-73
2023/04/03 12:45:17;;;;;;;1.00;0.50;;;9.80;93.40;;;;;;4956832;28;20790;-75
2023/04/03 12:47:45;;;;;;;2.67;0.70;;;9.70;93.90;;;;;;4956657;28;20208;-73
2023/04/03 12:50:23;;;;;;;6.07;0.33;;;9.70;94.50;;;;;;4956605;28;20216;-72
2023/04/03 12:52:56;;;;;;;1.23;0.60;;;9.70;94.00;;;;;;4956545;28;20286;-73
2023/04/03 12:55:24;;;;;;;0.90;0.33;;;9.80;94.50;;;;;;4956298;28;20216;-72
2023/04/03 12:57:51;;;;;;;1.27;0.70;;;9.80;94.40;;;;;;4956803;28;20211;-72
2023/04/03 13:00:27;;;;;;;1.23;0.50;;;10.00;93.40;;;;;;4956924;28;20215;-73
2023/04/03 13:02:54;;;;;;;0.60;0.40;;;9.70;92.90;;;;;;4955422;28;20602;-72
2023/04/03 13:05:22;;;;;;;1.20;0.70;;;9.70;92.50;;;;;;4956295;28;20208;-72
2023/04/03 13:07:52;;;;;;;1.80;0.70;;;9.60;93.20;;;;;;4956101;28;20215;-72
2023/04/03 13:10:20;;;;;;;1.30;0.40;;;9.60;92.70;;;;;;4956219;29;20214;-73
2023/04/03 13:12:50;;;;;;;1.37;0.50;;;9.60;93.20;;;;;;4956036;28;20279;-73
2023/04/03 13:15:20;;;;;;;1.70;0.50;;;9.70;93.10;;;;;;4956554;28;20212;-74
2023/04/03 13:17:49;;;;;;;1.70;0.57;;;9.70;92.70;;;;;;4956361;28;20553;-74
2023/04/03 13:20:21;;;;;;;0.80;0.60;;;9.80;92.30;;;;;;4951720;28;20279;-74
2023/04/03 13:22:54;;;;;;;0.90;0.40;;;9.70;92.60;;;;;;4956254;28;20238;-71
2023/04/03 13:25:23;;;;;;;0.93;0.40;;;9.80;92.60;;;;;;4956220;28;20212;-73
2023/04/03 13:27:51;;;;;;;1.97;0.57;;;9.90;92.80;;;;;;4955980;28;20295;-74
2023/04/03 13:30:27;;;;;;;1.60;0.47;;;9.80;92.30;;;;;;4955680;29;20231;-73
2023/04/03 13:32:54;;;;;;;1.63;1.03;;;9.70;92.60;;;;;;4955659;28;20270;-74
2023/04/03 13:35:34;;;;;;;0.80;0.43;;;9.80;92.60;;;;;;4956137;28;20208;-75
2023/04/03 13:38:05;;;;;;;0.87;0.40;;;9.90;93.40;;;;;;4956132;28;20207;-73
2023/04/03 13:40:32;;;;;;;2.27;0.50;;;9.90;92.60;;;;;;4955669;29;20196;-73
2023/04/03 13:43:03;;;;;;;1.00;0.50;;;9.90;93.60;;;;;;4955077;28;20235;-73
2023/04/03 13:45:31;;;;;;;2.97;0.70;;;9.90;93.00;;;;;;4955314;28;20223;-74
2023/04/03 13:48:11;;;;;;;0.90;0.50;;;9.90;93.00;;;;;;4955588;28;20651;-73
2023/04/03 13:50:53;;;;;;;1.30;0.50;;;10.00;91.50;;;;;;4955477;28;20556;-73
2023/04/03 13:53:19;;;;;;;1.00;0.53;;;9.90;92.60;;;;;;4956613;28;20706;-72
2023/04/03 13:55:57;;;;;;;1.70;0.60;;;9.90;93.90;;;;;;4955130;28;20215;-72
2023/04/03 13:58:27;;;;;;;0.70;0.50;;;10.00;93.40;;;;;;4955237;28;20216;-72
2023/04/03 14:00:56;;;;;;;0.40;0.40;;;10.10;92.70;;;;;;4955000;28;20299;-74
2023/04/03 14:03:26;;;;;;;1.03;0.50;;;10.10;93.20;;;;;;4955169;28;20320;-74
2023/04/03 14:05:53;;;;;;;1.20;0.60;;;10.20;93.40;;;;;;4955184;28;20208;-72
2023/04/03 14:08:21;;;;;;;1.83;0.50;;;10.10;93.50;;;;;;4954781;28;20231;-72
2023/04/03 14:10:49;;;;;;;0.97;0.60;;;10.00;92.70;;;;;;4954416;28;20663;-73
2023/04/03 14:13:19;;;;;;;1.43;0.73;;;9.90;93.60;;;;;;4954993;28;20235;-72
2023/04/03 14:15:48;;;;;;;1.47;0.50;;;9.90;93.20;;;;;;4954445;28;20570;-74
2023/04/03 14:18:17;;;;;;;1.80;0.50;;;9.90;94.00;;;;;;4954724;29;20239;-71
2023/04/03 14:20:44;;;;;;;1.97;0.70;;;10.00;94.00;;;;;;4954847;28;20220;-75
2023/04/03 14:23:11;;;;;;;1.00;0.63;;;10.00;92.70;;;;;;4954827;28;20327;-77
2023/04/03 14:25:39;;;;;;;0.63;0.50;;;10.20;93.50;;;;;;4955079;28;20699;-78
2023/04/03 14:28:15;;;;;;;1.07;0.50;;;10.10;92.10;;;;;;4954789;28;20204;-73
2023/04/03 14:30:42;;;;;;;2.13;0.53;;;10.10;93.10;;;;;;4954762;28;20208;-74
2023/04/03 14:33:15;;;;;;;1.50;0.70;;;10.20;93.00;;;;;;4955047;28;20235;-74
2023/04/03 14:35:42;;;;;;;1.50;0.70;;;10.10;92.00;;;;;;4954899;28;20204;-73
2023/04/03 14:38:22;;;;;;;2.77;0.83;;;10.30;93.10;;;;;;4954913;28;20567;-74
2023/04/03 14:40:49;;;;;;;3.33;0.63;;;10.30;92.40;;;;;;4955432;28;20216;-75
2023/04/03 14:43:16;;;;;;;0.90;0.50;;;10.30;91.90;;;;;;4954746;28;20591;-74
2023/04/03 14:45:43;;;;;;;1.80;0.60;;;10.30;91.60;;;;;;4954430;28;20231;-74
2023/04/03 14:48:19;;;;;;;0.70;0.50;;;10.20;91.00;;;;;;4954462;28;20659;-76
2023/04/03 14:50:46;;;;;;;0.97;0.70;;;10.10;91.70;;;;;;4954437;28;20687;-75
2023/04/03 14:53:14;;;;;;;1.10;0.60;;;10.20;90.90;;;;;;4954902;28;20234;-75
2023/04/03 14:55:42;;;;;;;1.47;0.70;;;10.30;91.20;;;;;;4954819;28;20212;-74
2023/04/03 14:58:12;;;;;;;0.77;0.50;;;10.50;92.00;;;;;;4954737;28;20208;-75
2023/04/03 15:00:39;;;;;;;1.63;0.70;;;10.40;92.00;;;;;;4955252;28;20215;-74
2023/04/03 15:03:06;;;;;;;1.00;0.90;;;10.50;91.20;;;;;;4954778;28;20683;-75
2023/04/03 15:05:37;;;;;;;0.80;0.47;;;10.40;91.30;;;;;;4954819;28;20615;-74
2023/04/03 15:08:04;;;;;;;0.50;0.37;;;10.30;90.50;;;;;;4954659;28;20212;-74
2023/04/03 15:10:32;;;;;;;1.30;0.70;;;10.30;90.90;;;;;;4954755;28;20259;-75
2023/04/03 15:13:00;;;;;;;1.17;0.53;;;10.30;91.50;;;;;;4954543;28;20805;-77
2023/04/03 15:15:30;;;;;;;1.50;0.60;;;10.20;91.50;;;;;;4954587;28;20549;-75
2023/04/03 15:17:58;;;;;;;0.67;0.40;;;10.20;92.00;;;;;;4954597;28;20282;-75
2023/04/03 15:20:27;;;;;;;1.00;0.60;;;10.20;92.10;;;;;;4954587;28;20294;-76
2023/04/03 15:22:56;;;;;;;3.33;0.90;;;10.30;92.70;;;;;;4954603;28;20228;-76
2023/04/03 15:25:24;;;;;;;0.73;0.57;;;10.30;91.90;;;;;;4954581;28;20572;-72
2023/04/03 15:27:51;;;;;;;3.23;0.90;;;10.30;92.50;;;;;;4958009;28;20211;-77
2023/04/03 15:30:19;;;;;;;1.80;0.70;;;10.10;93.30;;;;;;4958043;28;20663;-74
2023/04/03 15:32:46;;;;;;;1.57;0.50;;;10.10;92.00;;;;;;4958157;28;20235;-74
2023/04/03 15:35:13;;;;;;;1.53;0.73;;;10.00;91.20;;;;;;4958281;28;20307;-73
2023/04/03 15:37:40;;;;;;;1.83;1.00;;;10.10;92.10;;;;;;4958181;28;20208;-73
2023/04/03 15:40:10;;;;;;;1.83;0.70;;;10.10;92.60;;;;;;4958113;28;20212;-73
2023/04/03 15:42:36;;;;;;;3.67;0.80;;;10.10;92.00;;;;;;4958563;28;20232;-73
2023/04/03 15:45:04;;;;;;;1.40;0.77;;;9.90;93.00;;;;;;4958273;28;20240;-75
2023/04/03 15:47:31;;;;;;;0.90;0.50;;;10.00;92.90;;;;;;4958040;28;20212;-74
2023/04/03 15:49:57;;;;;;;3.43;0.70;;;10.10;92.50;;;;;;4957870;28;20214;-76
2023/04/03 15:52:24;;;;;;;2.87;1.10;;;10.20;93.40;;;;;;4957768;28;20232;-77
2023/04/03 15:54:51;;;;;;;1.10;0.70;;;10.20;93.50;;;;;;4958050;28;20234;-77
2023/04/03 15:57:19;;;;;;;1.03;0.63;;;10.10;93.80;;;;;;4957707;28;20223;-76
2023/04/03 15:59:46;;;;;;;2.23;0.80;;;10.00;93.90;;;;;;4958066;28;20230;-77
2023/04/03 16:02:14;;;;;;;5.90;1.13;;;10.00;94.50;;;;;;4957994;28;20222;-77
2023/04/03 16:04:41;;;;;;;1.77;0.60;;;10.20;93.20;;;;;;4957780;28;20232;-76
2023/04/03 16:07:08;;;;;;;6.17;0.60;;;10.10;93.50;;;;;;4957690;28;20291;-76
2023/04/03 16:09:36;;;;;;;1.47;0.80;;;10.00;94.00;;;;;;4957770;28;20208;-77
2023/04/03 16:12:03;;;;;;;3.13;0.70;;;9.90;95.20;;;;;;4957159;28;20682;-76
2023/04/03 16:14:31;;;;;;;2.97;0.90;;;9.90;95.20;;;;;;4957423;28;20758;-76
2023/04/03 16:16:59;;;;;;;1.77;0.90;;;9.80;95.00;;;;;;4957867;28;20223;-77
2023/04/03 16:19:26;;;;;;;2.93;1.00;;;9.90;95.30;;;;;;4957513;28;20219;-76
2023/04/03 16:21:54;;;;;;;2.10;0.80;;;9.90;95.80;;;;;;4957705;28;20215;-77
2023/04/03 16:24:21;;;;;;;4.13;1.30;;;9.90;95.50;;;;;;4956845;28;20263;-71
2023/04/03 16:26:48;;;;;;;1.93;0.80;;;9.80;95.10;;;;;;4952286;28;20223;-73
2023/04/03 16:29:15;;;;;;;2.30;0.90;;;9.80;95.50;;;;;;4956266;29;20212;-74
2023/04/03 16:31:43;;;;;;;2.43;0.70;;;9.80;95.60;;;;;;4956111;29;20214;-72
2023/04/03 16:34:10;;;;;;;1.37;0.80;;;9.80;95.40;;;;;;4955877;28;20583;-73
2023/04/03 16:36:37;;;;;;;1.23;0.70;;;9.70;95.70;;;;;;4951826;28;20219;-73
2023/04/03 16:39:05;;;;;;;1.10;0.77;;;9.60;95.90;;;;;;4950002;29;20231;-74
2023/04/03 16:41:32;;;;;;;1.57;0.70;;;9.70;96.10;;;;;;4955651;28;20208;-75
2023/04/03 16:43:59;;;;;;;1.03;0.70;;;9.60;96.50;;;;;;4952403;28;20239;-79
2023/04/03 16:46:26;;;;;;;1.40;0.70;;;9.60;96.00;;;;;;4955277;28;20299;-75
2023/04/03 16:48:54;;;;;;;2.07;0.87;;;9.70;96.10;;;;;;4955345;28;20219;-73
2023/04/03 16:51:22;;;;;;;4.30;0.87;;;9.70;95.90;;;;;;4955515;28;20667;-75
2023/04/03 16:53:49;;;;;;;1.97;0.90;;;9.60;96.00;;;;;;4955267;28;20643;-74
2023/04/03 16:56:16;;;;;;;1.73;0.80;;;9.70;96.60;;;;;;4955080;28;20402;-74
2023/04/03 16:58:43;;;;;;;1.40;0.80;;;9.60;96.00;;;;;;4954903;29;20319;-74
2023/04/03 17:01:11;;;;;;;3.63;0.70;;;9.50;96.20;;;;;;4955274;28;20604;-75
2023/04/03 17:03:38;;;;;;;1.63;0.90;;;9.40;96.30;;;;;;4955009;28;20231;-74
2023/04/03 17:06:07;;;;;;;1.37;0.70;;;9.40;96.30;;;;;;4954782;28;20208;-75
2023/04/03 17:08:34;;;;;;;1.47;0.70;;;9.50;95.90;;;;;;4954334;28;20667;-74
2023/04/03 17:11:01;;;;;;;1.97;0.90;;;9.40;95.80;;;;;;4955288;28;20242;-74
2023/04/03 17:13:31;;;;;;;1.37;0.70;;;9.40;96.50;;;;;;4954727;28;20267;-75
2023/04/03 17:15:59;;;;;;;0.90;0.60;;;9.40;96.60;;;;;;4955064;28;20299;-74
2023/04/03 17:18:27;;;;;;;2.00;0.97;;;9.30;96.80;;;;;;4954914;28;20207;-74
2023/04/03 17:20:54;;;;;;;2.60;1.20;;;9.30;96.70;;;;;;4954949;28;20581;-74
2023/04/03 17:23:22;;;;;;;1.13;1.03;;;9.30;96.70;;;;;;4954877;28;20238;-74
2023/04/03 17:25:49;;;;;;;1.73;0.70;;;9.40;96.60;;;;;;4954297;28;20590;-74
2023/04/03 17:28:16;;;;;;;2.90;0.80;;;9.30;96.20;;;;;;4955062;28;20303;-74
2023/04/03 17:30:42;;;;;;;2.40;0.90;;;9.20;96.50;;;;;;4955328;28;20210;-73
2023/04/03 17:33:09;;;;;;;2.53;0.60;;;9.20;96.40;;;;;;4954335;28;20330;-74
2023/04/03 17:35:36;;;;;;;2.73;0.70;;;9.00;96.60;;;;;;4953923;28;20220;-75
2023/04/03 17:38:03;;;;;;;1.37;0.70;;;9.00;96.50;;;;;;4954175;28;20208;-74
2023/04/03 17:40:31;;;;;;;1.13;0.47;;;9.00;96.90;;;;;;4954314;28;20215;-74
2023/04/03 17:42:58;;;;;;;1.73;0.87;;;8.80;96.70;;;;;;4954589;28;20228;-74
2023/04/03 17:45:26;;;;;;;1.03;0.70;;;8.80;96.70;;;;;;4954398;28;20328;-74
2023/04/03 17:47:53;;;;;;;1.50;0.60;;;8.70;96.50;;;;;;4954831;28;20548;-74
2023/04/03 17:50:21;;;;;;;2.73;0.70;;;8.70;97.20;;;;;;4953504;28;20219;-74
2023/04/03 17:52:48;;;;;;;2.17;0.70;;;8.60;97.50;;;;;;4954558;28;20231;-73
2023/04/03 17:55:16;;;;;;;3.77;1.13;;;8.70;97.30;;;;;;4954249;28;20212;-74
2023/04/03 17:57:44;;;;;;;1.07;0.70;;;8.60;97.40;;;;;;4954084;28;20544;-74
2023/04/03 18:00:12;;;;;;;1.43;0.93;;;8.40;97.70;;;;;;4954492;28;20216;-73
2023/04/03 18:02:40;;;;;;;1.50;0.80;;;8.40;97.40;;;;;;4954328;28;20227;-74
2023/04/03 18:05:07;;;;;;;2.00;0.90;;;8.40;97.30;;;;;;4955092;28;20244;-77
2023/04/03 18:07:34;;;;;;;2.90;1.00;;;8.30;97.40;;;;;;4955524;28;20214;-81
2023/04/03 18:10:03;;;;;;;5.20;1.20;;;8.30;97.40;;;;;;4954995;28;20214;-81
2023/04/03 18:12:31;;;;;;;2.83;1.00;;;8.20;97.60;;;;;;4952833;28;20232;-86
2023/04/03 18:15:01;;;;;;;2.33;1.00;;;8.10;97.50;;;;;;4954870;28;20215;-88
2023/04/03 18:17:28;;;;;;;4.10;1.10;;;8.10;97.50;;;;;;4956283;28;20211;-88
2023/04/03 18:19:55;;;;;;;3.10;1.10;;;8.00;97.60;;;;;;4955872;28;20691;-89
2023/04/03 18:22:23;;;;;;;1.17;0.70;;;7.90;97.80;;;;;;4955740;28;20228;-84
2023/04/03 18:24:52;;;;;;;2.43;1.00;;;7.90;97.90;;;;;;4955906;28;20236;-86
2023/04/03 18:27:20;;;;;;;4.07;0.90;;;7.80;98.30;;;;;;4955169;28;20204;-79
2023/04/03 18:29:52;;;;;;;4.37;0.90;;;7.90;98.20;;;;;;4955724;28;20222;-85
2023/04/03 18:32:21;;;;;;;1.67;0.70;;;7.90;97.80;;;;;;4955561;28;20594;-83
2023/04/03 18:34:48;;;;;;;1.27;0.90;;;7.80;98.00;;;;;;4955898;28;20211;-79
2023/04/03 18:37:15;;;;;;;2.33;0.87;;;7.60;98.10;;;;;;4955572;28;20208;-78
2023/04/03 18:39:42;;;;;;;1.67;0.80;;;7.60;98.30;;;;;;4955838;28;20212;-82
2023/04/03 18:42:12;;;;;;;5.70;1.20;;;7.60;98.10;;;;;;4955837;28;20214;-81
2023/04/03 18:44:40;;;;;;;1.30;0.70;;;7.50;98.00;;;;;;4955390;28;20224;-79
2023/04/03 18:47:08;;;;;;;2.63;0.73;;;7.40;97.80;;;;;;4955580;28;20698;-82
2023/04/03 18:49:39;;;;;;;2.00;0.87;;;7.40;98.00;;;;;;4955624;28;20215;-82
2023/04/03 18:52:06;;;;;;;2.30;1.10;;;7.40;98.10;;;;;;4955312;28;20208;-82
2023/04/03 18:54:33;;;;;;;1.20;0.60;;;7.30;98.20;;;;;;4956062;28;20216;-81
2023/04/03 18:57:00;;;;;;;2.90;0.90;;;7.30;98.20;;;;;;4955702;28;20298;-83
2023/04/03 18:59:26;;;;;;;2.47;0.80;;;7.20;98.70;;;;;;4955484;28;20208;-81
2023/04/03 19:01:54;;;;;;;1.30;0.70;;;7.20;98.20;;;;;;4954713;28;20615;-82
2023/04/03 19:04:22;;;;;;;1.23;0.80;;;7.10;98.30;;;;;;4955468;28;20266;-81
2023/04/03 19:06:50;;;;;;;2.67;0.90;;;7.20;98.20;;;;;;4955995;28;20212;-83
2023/04/03 19:09:17;;;;;;;3.70;0.93;;;7.10;98.40;;;;;;4955910;28;20208;-82
2023/04/03 19:11:43;;;;;;;2.17;1.00;;;7.00;98.60;;;;;;4954827;28;20685;-75
2023/04/03 19:14:10;;;;;;;3.90;1.33;;;7.00;98.50;;;;;;4942811;28;20590;-75
2023/04/03 19:16:38;;;;;;;3.17;0.87;;;7.00;98.50;;;;;;4941217;29;20216;-76
2023/04/03 19:19:04;;;;;;;1.70;0.80;;;6.90;98.70;;;;;;4945695;28;20264;-79
2023/04/03 19:21:31;;;;;;;2.50;0.80;;;6.90;98.80;;;;;;4953851;28;20243;-75
2023/04/03 19:23:59;;;;;;;7.00;0.80;;;6.90;98.70;;;;;;4941994;28;20315;-74
2023/04/03 19:26:26;;;;;;;0.93;0.70;;;6.90;98.90;;;;;;4943861;28;20240;-75
2023/04/03 19:28:53;;;;;;;3.80;0.93;;;6.80;98.90;;;;;;4947248;28;20212;-75
2023/04/03 19:31:22;;;;;;;2.43;0.70;;;6.80;99.20;;;;;;4939110;28;20236;-74
2023/04/03 19:33:49;;;;;;;1.43;0.70;;;6.80;99.10;;;;;;4941474;28;20268;-74
2023/04/03 19:36:17;;;;;;;2.30;1.00;;;6.70;99.30;;;;;;4942305;28;20631;-75
2023/04/03 19:38:44;;;;;;;1.17;0.77;;;6.60;99.50;;;;;;4951179;28;20299;-74
2023/04/03 19:41:15;;;;;;;2.10;0.90;;;6.60;99.90;;;;;;4953902;28;20219;-75
2023/04/03 19:43:42;;;;;;;1.70;0.93;;;6.50;99.90;;;;;;4940646;28;20236;-74
2023/04/03 19:46:09;;;;;;;5.23;0.97;;;6.40;99.90;;;;;;4951999;28;20240;-74
2023/04/03 19:48:36;;;;;;;4.00;1.10;;;6.40;99.90;;;;;;4936937;28;20205;-78
2023/04/03 19:51:04;;;;;;;3.37;0.90;;;6.40;99.90;;;;;;4946611;29;20215;-75
2023/04/03 19:53:32;;;;;;;3.47;1.20;;;6.40;99.90;;;;;;4939926;28;20272;-74
2023/04/03 19:55:59;;;;;;;1.83;0.90;;;6.30;99.90;;;;;;4946045;28;20216;-74
2023/04/03 19:58:28;;;;;;;3.03;0.90;;;6.30;99.90;;;;;;4944513;28;20747;-74
2023/04/03 20:00:56;;;;;;;3.57;0.90;;;6.30;99.90;;;;;;4950003;28;20302;-75
2023/04/03 20:03:23;;;;;;;1.63;0.73;;;6.20;99.90;;;;;;4943311;28;20715;-74
2023/04/03 20:05:50;;;;;;;2.50;0.90;;;6.20;99.90;;;;;;4946230;28;20239;-74
2023/04/03 20:08:17;;;;;;;2.77;1.00;;;6.10;99.90;;;;;;4943879;29;20208;-75
2023/04/03 20:10:44;;;;;;;2.33;0.90;;;6.00;99.90;;;;;;4947696;28;20216;-74
2023/04/03 20:13:12;;;;;;;2.77;0.83;;;6.00;99.90;;;;;;4956108;28;20346;-74
2023/04/03 20:15:43;;;;;;;2.37;0.93;;;5.90;99.90;;;;;;4950814;28;20239;-74
2023/04/03 20:18:16;;;;;;;7.70;1.40;;;5.80;99.90;;;;;;4950427;28;20212;-74
2023/04/03 20:20:43;;;;;;;3.67;1.23;;;5.70;99.90;;;;;;4950270;28;20208;-75
2023/04/03 20:23:13;;;;;;;2.10;0.80;;;5.70;99.90;;;;;;4940006;29;20239;-74
2023/04/03 20:25:41;;;;;;;2.80;1.13;;;5.60;99.90;;;;;;4947312;29;20220;-75
2023/04/03 20:28:08;;;;;;;3.17;1.10;;;5.70;99.90;;;;;;4947816;29;20215;-75
2023/04/03 20:30:35;;;;;;;4.27;1.40;;;5.60;99.90;;;;;;4940035;28;20209;-75
2023/04/03 20:33:04;;;;;;;4.03;1.10;;;5.70;99.90;;;;;;4946925;28;20228;-76
2023/04/03 20:35:31;;;;;;;4.60;1.30;;;5.60;99.90;;;;;;4947501;28;20279;-74
2023/04/03 20:37:59;;;;;;;2.17;1.10;;;5.60;99.90;;;;;;4953059;28;20208;-74
2023/04/03 20:40:26;;;;;;;2.00;1.07;;;5.60;99.90;;;;;;4954843;28;20208;-75
2023/04/03 20:42:53;;;;;;;4.07;0.70;;;5.60;99.90;;;;;;4951255;28;20535;-84
2023/04/03 20:45:21;;;;;;;2.03;0.70;;;5.60;99.90;;;;;;4939442;28;20330;-84
2023/04/03 20:47:48;;;;;;;3.33;0.70;;;5.60;99.90;;;;;;4953113;28;20255;-83
2023/04/03 20:50:16;;;;;;;1.57;0.77;;;5.50;99.90;;;;;;4945362;28;20235;-82
2023/04/03 20:52:43;;;;;;;1.73;0.77;;;5.40;99.90;;;;;;4949646;28;20228;-84
2023/04/03 20:55:10;;;;;;;1.83;0.60;;;5.40;99.90;;;;;;4946900;28;20212;-84
2023/04/03 20:57:36;;;;;;;1.93;0.60;;;5.40;99.90;;;;;;4949615;28;20252;-84
2023/04/03 21:00:06;;;;;;;2.27;0.80;;;5.30;99.90;;;;;;4943756;28;20212;-82
2023/04/03 21:02:33;;;;;;;4.90;0.93;;;5.30;99.90;;;;;;4946368;28;20328;-84
2023/04/03 21:05:00;;;;;;;2.50;1.00;;;5.40;99.90;;;;;;4955813;29;20211;-81
2023/04/03 21:08:04;;;;;;;2.10;1.17;;;5.30;99.90;;;;;;4952451;28;20243;-84